Time;durP1;ratioP1;P1;durP2;ratioP2;P2;SDS_P1;SDS_P2;PMS_P1;PMS_P2;Temp;Humidity;BMP_temperature;BMP_pressure;BME280_temperature;BME280_humidity;BME280_pressure;Samples;Min_cycle;Max_cycle;Signal;HPM_P1;HPM_P2
2022/08/22 00:00:23;;;;;;;20.25;10.45;;;;;;;21.79;100.00;96160.22;4987621;28;20057;-59
2022/08/22 00:03:02;;;;;;;14.85;9.13;;;;;;;21.86;100.00;96179.66;4988646;28;20112;-59
2022/08/22 00:05:54;;;;;;;13.70;9.88;;;;;;;21.92;99.92;96172.19;4987537;28;20081;-59
2022/08/22 00:08:28;;;;;;;22.55;10.10;;;;;;;21.95;100.00;96179.72;4988928;28;20545;-59
2022/08/22 00:11:24;;;;;;;14.93;10.00;;;;;;;21.95;100.00;96168.44;4988916;28;20132;-60
2022/08/22 00:14:34;;;;;;;15.55;9.50;;;;;;;21.94;100.00;96164.00;4988627;28;20061;-61
2022/08/22 00:17:35;;;;;;;13.70;10.05;;;;;;;21.96;100.00;96161.53;4990173;28;20153;-59
2022/08/22 00:20:25;;;;;;;15.93;10.73;;;;;;;21.89;100.00;96166.69;4988656;28;20054;-61
2022/08/22 00:23:14;;;;;;;22.80;10.35;;;;;;;21.91;100.00;96164.94;4988421;28;20050;-59
2022/08/22 00:26:08;;;;;;;19.30;10.65;;;;;;;22.02;100.00;96170.16;4988195;28;20073;-58
2022/08/22 00:28:40;;;;;;;21.67;10.48;;;;;;;22.07;100.00;96181.59;4988222;28;20061;-60
2022/08/22 00:31:25;;;;;;;18.75;10.73;;;;;;;22.02;99.89;96176.56;4986893;28;20050;-60
2022/08/22 00:34:01;;;;;;;15.55;10.48;;;;;;;22.01;99.73;96179.88;4988159;28;20497;-59
2022/08/22 00:36:51;;;;;;;23.52;11.05;;;;;;;21.92;100.00;96172.19;4987848;28;20057;-60
2022/08/22 00:39:39;;;;;;;16.33;11.20;;;;;;;21.85;100.00;96172.47;5008982;28;20401;-59
2022/08/22 00:42:07;;;;;;;24.67;11.80;;;;;;;21.79;100.00;96168.69;5008204;28;20145;-59
2022/08/22 00:44:45;;;;;;;15.77;11.63;;;;;;;21.90;100.00;96171.84;5007306;28;20132;-59
2022/08/22 00:47:31;;;;;;;15.52;10.38;;;;;;;21.73;100.00;96170.53;5006540;28;20085;-59
2022/08/22 00:50:16;;;;;;;17.80;11.57;;;;;;;21.59;100.00;96164.66;5007830;28;20448;-59
2022/08/22 00:53:13;;;;;;;15.00;11.02;;;;;;;21.50;100.00;96162.56;5005928;28;20056;-60
2022/08/22 00:56:02;;;;;;;17.50;12.00;;;;;;;21.35;100.00;96150.31;5007402;28;20054;-59
2022/08/22 00:59:09;;;;;;;18.83;12.18;;;;;;;21.23;100.00;96154.00;5007511;28;20464;-59
2022/08/22 01:02:02;;;;;;;23.40;12.88;;;;;;;21.15;100.00;96163.97;5011926;28;20045;-60
2022/08/22 01:04:31;;;;;;;15.40;12.40;;;;;;;21.08;100.00;96167.06;5007277;28;20061;-60
2022/08/22 01:07:31;;;;;;;18.15;13.55;;;;;;;21.04;100.00;96163.59;5007186;28;20054;-59
2022/08/22 01:10:28;;;;;;;23.50;13.55;;;;;;;20.95;100.00;96161.47;5007008;28;20100;-60
2022/08/22 01:13:13;;;;;;;21.98;13.60;;;;;;;20.94;100.00;96165.53;5006780;28;20513;-60
2022/08/22 01:15:41;;;;;;;20.77;14.00;;;;;;;20.81;100.00;96169.66;5007184;28;20058;-60
2022/08/22 01:18:17;;;;;;;24.67;15.25;;;;;;;20.32;100.00;96160.19;5006834;28;20049;-59
2022/08/22 01:21:02;;;;;;;24.45;15.60;;;;;;;20.42;100.00;96168.25;5006959;28;20049;-60
2022/08/22 01:23:48;;;;;;;20.42;15.43;;;;;;;20.42;100.00;96173.13;5006665;28;20152;-60
2022/08/22 01:26:30;;;;;;;21.73;16.40;;;;;;;20.53;100.00;96170.72;5006401;28;20507;-62
2022/08/22 01:29:39;;;;;;;27.42;16.30;;;;;;;20.53;100.00;96162.25;5006638;28;20072;-61
2022/08/22 01:32:46;;;;;;;24.67;15.75;;;;;;;20.51;100.00;96159.13;5008626;28;20069;-60
2022/08/22 01:35:41;;;;;;;20.65;14.80;;;;;;;20.45;100.00;96173.00;5005360;28;20493;-59
2022/08/22 01:38:43;;;;;;;22.83;15.95;;;;;;;20.51;100.00;96167.56;5001573;28;20074;-61
2022/08/22 01:41:29;;;;;;;24.98;15.45;;;;;;;20.59;100.00;96166.06;4986776;28;20054;-61
2022/08/22 01:44:09;;;;;;;25.60;14.02;;;;;;;20.57;100.00;96168.53;4986816;28;20609;-60
2022/08/22 01:46:56;;;;;;;22.80;15.95;;;;;;;20.47;100.00;96164.09;4987037;28;20155;-60
2022/08/22 01:49:47;;;;;;;26.17;16.02;;;;;;;20.53;100.00;96165.06;4986863;28;20069;-59
2022/08/22 01:52:27;;;;;;;21.58;14.15;;;;;;;20.54;100.00;96172.28;4986944;28;20441;-60
2022/08/22 01:55:08;;;;;;;22.13;14.43;;;;;;;20.51;100.00;96167.56;4987028;28;20457;-61
2022/08/22 01:58:03;;;;;;;25.77;15.10;;;;;;;20.52;100.00;96167.09;4986529;28;20054;-61
2022/08/22 02:00:54;;;;;;;20.92;13.95;;;;;;;20.48;100.00;96165.66;4987333;28;20081;-60
2022/08/22 02:03:26;;;;;;;22.23;13.50;;;;;;;20.49;100.00;96175.66;5001321;28;20061;-61
2022/08/22 02:05:59;;;;;;;26.23;14.57;;;;;;;20.44;100.00;96176.22;4986608;28;20065;-60
2022/08/22 02:09:03;;;;;;;21.60;13.77;;;;;;;20.38;100.00;96192.13;4986411;28;20441;-59
2022/08/22 02:11:54;;;;;;;19.65;13.13;;;;;;;20.36;100.00;96172.13;4985891;28;20294;-61
2022/08/22 02:14:35;;;;;;;18.15;12.85;;;;;;;20.31;100.00;96172.69;4991174;28;20050;-61
2022/08/22 02:17:49;;;;;;;19.20;13.60;;;;;;;20.24;100.00;96167.31;4986370;28;20064;-60
2022/08/22 02:20:30;;;;;;;22.93;13.00;;;;;;;20.36;100.00;96174.94;4985042;28;20054;-61
2022/08/22 02:23:06;;;;;;;23.40;14.38;;;;;;;20.33;100.00;96167.38;4986229;28;20073;-61
2022/08/22 02:25:55;;;;;;;19.40;13.15;;;;;;;20.40;100.00;96169.97;5000442;28;20405;-59
2022/08/22 02:28:47;;;;;;;23.20;13.40;;;;;;;20.39;100.00;96174.03;4986151;28;20090;-60
2022/08/22 02:31:35;;;;;;;20.90;13.52;;;;;;;20.47;100.00;96181.75;5001230;28;20069;-61
2022/08/22 02:34:19;;;;;;;17.40;12.85;;;;;;;20.51;100.00;96178.81;4985723;28;20070;-60
2022/08/22 02:36:48;;;;;;;;;;;;;;;20.45;100.00;96172.19;4986361;28;20072;-60
2022/08/22 02:39:37;;;;;;;21.10;12.40;;;;;;;20.53;100.00;96179.16;4984682;28;19932;-60
2022/08/22 02:42:22;;;;;;;21.77;13.02;;;;;;;20.49;100.00;96181.28;4985660;28;20046;-60
2022/08/22 02:45:17;;;;;;;19.88;11.88;;;;;;;20.64;100.00;96179.56;4985679;28;20120;-61
2022/08/22 02:48:13;;;;;;;17.73;12.23;;;;;;;20.57;100.00;96174.16;4985878;28;20065;-61
2022/08/22 02:50:53;;;;;;;18.27;12.25;;;;;;;20.54;100.00;96180.72;4986028;28;20061;-60
2022/08/22 02:53:31;;;;;;;20.13;12.32;;;;;;;20.48;100.00;96171.28;4985312;28;20057;-60
2022/08/22 02:56:03;;;;;;;18.70;12.45;;;;;;;20.50;100.00;96168.81;4983332;28;20050;-62
2022/08/22 02:58:54;;;;;;;20.48;12.57;;;;;;;20.11;100.00;96091.41;4985755;28;20509;-60
2022/08/22 03:01:31;;;;;;;21.55;11.82;;;;;;;20.66;100.00;96165.81;4985432;28;20061;-60
2022/08/22 03:04:16;;;;;;;18.73;12.32;;;;;;;20.65;100.00;96158.59;4985479;28;20117;-60
2022/08/22 03:06:59;;;;;;;22.52;11.60;;;;;;;20.63;100.00;96161.06;4983334;28;20058;-60
2022/08/22 03:09:32;;;;;;;21.60;12.20;;;;;;;20.66;100.00;96160.19;4985602;28;20050;-60
2022/08/22 03:12:20;;;;;;;20.55;12.35;;;;;;;20.57;100.00;96179.78;4985689;28;20054;-61
2022/08/22 03:14:49;;;;;;;18.70;12.15;;;;;;;20.61;100.00;96186.09;4985692;28;20062;-60
2022/08/22 03:17:29;;;;;;;16.60;10.63;;;;;;;20.57;100.00;96186.22;4985459;28;20437;-61
2022/08/22 03:19:56;;;;;;;15.70;11.32;;;;;;;20.63;100.00;96194.84;4985450;28;20058;-60
2022/08/22 03:22:28;;;;;;;16.00;11.80;;;;;;;20.60;100.00;96195.75;4986453;28;20061;-60
2022/08/22 03:25:36;;;;;;;19.98;12.52;;;;;;;20.60;100.00;96201.38;4989613;28;20061;-60
2022/08/22 03:28:17;;;;;;;14.65;12.13;;;;;;;20.72;100.00;96204.16;4989383;28;20054;-61
2022/08/22 03:30:54;;;;;;;21.88;12.35;;;;;;;20.74;100.00;96178.34;4989787;28;20053;-60
2022/08/22 03:33:25;;;;;;;13.55;11.02;;;;;;;20.89;100.00;96199.13;4989354;28;20057;-60
2022/08/22 03:35:56;;;;;;;18.90;11.95;;;;;;;20.91;100.00;96191.03;4988150;28;20501;-60
2022/08/22 03:38:32;;;;;;;18.50;12.15;;;;;;;20.90;100.00;96192.25;4989347;28;20180;-60
2022/08/22 03:41:22;;;;;;;15.90;11.15;;;;;;;20.96;100.00;96199.69;4989467;28;20112;-62
2022/08/22 03:44:17;;;;;;;13.05;11.07;;;;;;;20.94;100.00;96198.53;4990741;28;20057;-60
2022/08/22 03:47:02;;;;;;;22.85;11.07;;;;;;;20.94;100.00;96199.31;4988826;28;20058;-61
2022/08/22 03:49:44;;;;;;;18.50;11.68;;;;;;;20.77;100.00;96195.13;4988734;28;20060;-61
2022/08/22 03:52:32;;;;;;;19.85;12.68;;;;;;;20.79;100.00;96203.13;4988943;28;20058;-60
2022/08/22 03:55:17;;;;;;;16.85;12.20;;;;;;;20.86;100.00;96208.50;4987652;28;20061;-60
2022/08/22 03:57:53;;;;;;;16.17;12.35;;;;;;;20.89;100.00;96218.84;4988500;28;20062;-60
2022/08/22 04:00:47;;;;;;;18.27;12.30;;;;;;;20.98;100.00;96216.13;4987339;28;20058;-60
2022/08/22 04:03:40;;;;;;;15.80;11.55;;;;;;;21.06;100.00;96223.06;4987263;28;20054;-60
2022/08/22 04:06:36;;;;;;;24.50;13.13;;;;;;;21.04;100.00;96225.53;4988151;28;20113;-60
2022/08/22 04:09:48;;;;;;;23.65;12.80;;;;;;;20.77;100.00;96214.06;4992176;28;20565;-60
2022/08/22 04:12:43;;;;;;;16.80;11.77;;;;;;;20.28;100.00;96191.25;4988785;28;20108;-60
2022/08/22 04:15:47;;;;;;;15.90;12.77;;;;;;;20.29;100.00;96217.38;4988524;28;20046;-61
2022/08/22 04:18:38;;;;;;;20.80;13.23;;;;;;;20.16;100.00;96211.78;4986939;28;20560;-61
2022/08/22 04:21:15;;;;;;;22.83;14.07;;;;;;;20.11;100.00;96209.50;4988894;28;20448;-61
2022/08/22 04:24:03;;;;;;;21.40;13.38;;;;;;;20.02;100.00;96222.66;4986891;28;20050;-61
2022/08/22 04:26:33;;;;;;;22.52;15.05;;;;;;;19.95;100.00;96220.09;4986688;28;20111;-61
2022/08/22 04:29:26;;;;;;;22.63;14.70;;;;;;;19.52;100.00;96147.63;4986989;28;20062;-60
2022/08/22 04:32:07;;;;;;;26.50;16.25;;;;;;;19.62;100.00;96165.38;4986927;28;20050;-61
2022/08/22 04:34:55;;;;;;;22.17;15.52;;;;;;;19.82;100.00;96196.84;4987478;28;20054;-60
2022/08/22 04:37:30;;;;;;;20.77;15.57;;;;;;;19.97;100.00;96220.41;4987905;28;20057;-60
2022/08/22 04:40:20;;;;;;;20.52;15.38;;;;;;;20.07;100.00;96220.09;4987676;28;20050;-60
2022/08/22 04:43:01;;;;;;;26.98;14.93;;;;;;;19.92;100.00;96254.72;4987208;28;20058;-61
2022/08/22 04:45:42;;;;;;;26.73;16.35;;;;;;;20.13;100.00;96217.47;4987547;28;20137;-61
2022/08/22 04:48:20;;;;;;;23.70;15.45;;;;;;;20.12;100.00;96215.91;4987550;28;20054;-60
2022/08/22 04:50:54;;;;;;;22.10;15.02;;;;;;;19.87;100.00;96213.16;4985965;28;20504;-59
2022/08/22 04:53:33;;;;;;;24.48;16.33;;;;;;;19.77;100.00;96217.06;4986144;28;20413;-60
2022/08/22 04:56:21;;;;;;;22.80;16.45;;;;;;;20.05;100.00;96233.81;4987563;28;20050;-60
2022/08/22 04:58:57;;;;;;;21.67;14.35;;;;;;;20.14;100.00;96230.34;4985765;28;20066;-60
2022/08/22 05:01:45;;;;;;;24.60;15.25;;;;;;;20.23;100.00;96233.25;4990620;28;20061;-61
2022/08/22 05:04:17;;;;;;;22.40;15.48;;;;;;;20.32;100.00;96236.16;4986717;28;20054;-60
2022/08/22 05:06:49;;;;;;;23.05;15.55;;;;;;;20.55;100.00;96238.56;4986026;28;20061;-59
2022/08/22 05:09:24;;;;;;;23.07;14.73;;;;;;;20.77;100.00;96236.59;4985727;28;20050;-59
2022/08/22 05:11:56;;;;;;;24.25;16.00;;;;;;;20.98;100.00;96255.53;4987294;28;20328;-61
2022/08/22 05:14:32;;;;;;;21.88;14.10;;;;;;;20.70;100.00;96186.16;4985918;28;20105;-62
2022/08/22 05:17:03;;;;;;;18.20;14.82;;;;;;;20.98;100.00;96204.09;4987201;28;20536;-58
2022/08/22 05:19:34;;;;;;;20.73;13.90;;;;;;;21.30;100.00;96243.09;4986116;28;20050;-59
2022/08/22 05:22:07;;;;;;;19.13;13.32;;;;;;;21.53;100.00;96251.84;4987100;28;20054;-60
2022/08/22 05:24:45;;;;;;;18.73;13.40;;;;;;;21.62;100.00;96254.72;4987292;28;20065;-59
2022/08/22 05:27:19;;;;;;;24.58;14.02;;;;;;;21.50;100.00;96224.59;4987199;28;20421;-60
2022/08/22 05:29:48;;;;;;;20.52;13.75;;;;;;;21.89;100.00;96263.31;4985639;28;20046;-60
2022/08/22 05:32:25;;;;;;;19.27;14.05;;;;;;;21.72;100.00;96225.31;4986866;28;20052;-60
2022/08/22 05:34:58;;;;;;;22.23;14.07;;;;;;;21.95;100.00;96216.38;4986607;28;20128;-59
2022/08/22 05:37:32;;;;;;;26.98;14.43;;;;;;;22.37;100.00;96248.47;4986958;28;20054;-59
2022/08/22 05:40:00;;;;;;;17.02;13.05;;;;;;;22.48;100.00;96262.13;5006139;28;20858;-59
2022/08/22 05:42:31;;;;;;;17.65;12.65;;;;;;;22.69;100.00;96257.63;5006090;28;20156;-60
2022/08/22 05:45:05;;;;;;;15.75;13.18;;;;;;;22.80;100.00;96232.53;5004910;28;20062;-59
2022/08/22 05:47:43;;;;;;;20.65;14.15;;;;;;;23.08;100.00;96251.06;5006010;28;20050;-62
2022/08/22 05:50:18;;;;;;;22.48;13.73;;;;;;;22.92;100.00;96223.13;4999968;28;20050;-63
2022/08/22 05:52:58;;;;;;;18.20;12.25;;;;;;;23.30;100.00;96257.38;4991860;28;20551;-62
2022/08/22 05:55:28;;;;;;;14.32;11.02;;;;;;;23.29;100.00;96256.56;4987818;28;20057;-62
2022/08/22 05:58:22;;;;;;;17.98;11.93;;;;;;;23.20;100.00;96248.09;5002819;28;20058;-62
2022/08/22 06:00:57;;;;;;;19.55;12.13;;;;;;;23.22;100.00;96290.00;4992007;28;20057;-61
2022/08/22 06:03:37;;;;;;;18.90;12.45;;;;;;;22.98;100.00;96202.28;4985718;28;20476;-65
2022/08/22 06:06:13;;;;;;;14.65;10.07;;;;;;;23.34;100.00;96249.50;4986087;28;20066;-62
2022/08/22 06:08:55;;;;;;;19.33;10.90;;;;;;;22.99;99.25;96191.72;4984710;28;20062;-65
2022/08/22 06:11:38;;;;;;;14.18;11.70;;;;;;;23.63;98.08;96258.25;5005058;28;20053;-62
2022/08/22 06:14:27;;;;;;;19.53;11.77;;;;;;;23.06;96.97;96168.81;5003929;28;20057;-67
2022/08/22 06:17:09;;;;;;;16.58;11.43;;;;;;;23.84;94.49;96262.88;4988725;28;20058;-61
2022/08/22 06:19:40;;;;;;;19.70;11.73;;;;;;;23.26;94.70;96171.94;4989020;28;20053;-63
2022/08/22 06:22:09;;;;;;;20.05;11.20;;;;;;;23.70;95.16;96252.25;4990562;28;20061;-62
2022/08/22 06:24:43;;;;;;;15.65;10.57;;;;;;;24.14;94.05;96264.69;5004435;28;20046;-66
2022/08/22 06:27:13;;;;;;;18.13;11.35;;;;;;;24.33;91.52;96243.53;5004800;28;20065;-62
2022/08/22 06:29:48;;;;;;;17.98;11.30;;;;;;;24.68;91.64;96258.75;4997782;28;20128;-60
2022/08/22 06:32:21;;;;;;;16.75;11.07;;;;;;;24.97;90.37;96258.88;4985928;28;20047;-61
2022/08/22 06:36:29;;;;;;;14.55;9.88;;;;;;;24.66;87.48;96186.84;4985233;28;20128;-60
2022/08/22 06:38:19;;;;;;;16.27;10.00;;;;;;;25.24;85.17;96258.63;4988703;28;20058;-60
2022/08/22 06:40:47;;;;;;;15.45;11.20;;;;;;;25.37;85.16;96252.72;4985784;28;20052;-63
2022/08/22 06:43:15;;;;;;;18.05;10.30;;;;;;;25.39;85.55;96244.50;4985426;28;20050;-68
2022/08/22 06:45:42;;;;;;;16.58;11.10;;;;;;;25.75;82.63;96271.75;4985648;28;20441;-62
2022/08/22 06:48:08;;;;;;;15.13;10.82;;;;;;;25.96;82.02;96273.38;4990385;28;20054;-65
2022/08/22 06:50:41;;;;;;;15.60;10.10;;;;;;;25.46;78.94;96178.13;4999402;28;20046;-63
2022/08/22 06:53:15;;;;;;;15.95;9.80;;;;;;;26.08;76.91;96238.28;5003002;28;20054;-63
2022/08/22 06:55:49;;;;;;;13.13;10.27;;;;;;;26.51;77.27;96266.56;5002566;28;20046;-63
2022/08/22 06:58:21;;;;;;;13.35;10.43;;;;;;;26.30;75.91;96275.53;5002846;28;20054;-72
2022/08/22 07:00:54;;;;;;;17.97;10.23;;;;;;;26.18;78.12;96239.69;5001281;28;20068;-69
2022/08/22 07:03:43;;;;;;;15.65;10.02;;;;;;;26.28;75.35;96278.09;4986885;28;20393;-70
2022/08/22 07:06:16;;;;;;;15.40;10.43;;;;;;;26.18;75.70;96248.22;4998217;28;20065;-66
2022/08/22 07:08:43;;;;;;;15.02;9.68;;;;;;;26.50;73.92;96284.09;5000073;28;20053;-68
2022/08/22 07:11:32;;;;;;;12.93;9.52;;;;;;;26.68;73.46;96283.91;5000174;28;20062;-62
2022/08/22 07:14:07;;;;;;;11.98;9.85;;;;;;;26.51;76.22;96274.28;4990838;28;20066;-69
2022/08/22 07:16:43;;;;;;;11.13;9.80;;;;;;;26.54;76.54;96276.19;4985260;28;20062;-62
2022/08/22 07:19:23;;;;;;;12.93;9.55;;;;;;;26.71;75.07;96297.13;4986918;28;20058;-64
2022/08/22 07:21:50;;;;;;;14.98;9.27;;;;;;;26.89;73.76;96285.47;4984758;28;20214;-65
2022/08/22 07:24:23;;;;;;;15.48;9.80;;;;;;;27.33;71.69;96293.81;4994939;28;20047;-60
2022/08/22 07:27:14;;;;;;;14.20;9.05;;;;;;;27.47;70.23;96285.22;4983568;28;20141;-65
2022/08/22 07:29:45;;;;;;;15.48;8.93;;;;;;;27.42;71.90;96248.94;4991854;28;20065;-60
2022/08/22 07:32:34;;;;;;;18.27;10.30;;;;;;;27.68;69.31;96286.72;4983720;28;20061;-64
2022/08/22 07:35:12;;;;;;;11.30;7.72;;;;;;;28.00;66.38;96287.56;4999808;28;20061;-62
2022/08/22 07:37:45;;;;;;;14.73;8.43;;;;;;;28.08;65.17;96289.47;5004309;28;20049;-62
2022/08/22 07:40:22;;;;;;;9.80;8.80;;;;;;;28.07;64.50;96299.28;4988743;28;20050;-64
2022/08/22 07:42:58;;;;;;;13.43;8.13;;;;;;;28.18;63.46;96288.00;4984574;28;20102;-61
2022/08/22 07:45:46;;;;;;;13.05;8.27;;;;;;;27.73;63.79;96246.16;4999759;28;20061;-63
2022/08/22 07:48:31;;;;;;;11.43;7.95;;;;;;;27.36;65.76;96227.41;4984779;28;20061;-64
2022/08/22 07:51:14;;;;;;;12.98;8.93;;;;;;;27.76;64.52;96244.34;4986501;28;20073;-60
2022/08/22 07:54:03;;;;;;;13.13;8.45;;;;;;;28.38;63.05;96294.88;4992828;28;20436;-62
2022/08/22 07:56:36;;;;;;;20.00;10.52;;;;;;;28.49;63.27;96283.59;4984940;28;20264;-64
2022/08/22 07:59:09;;;;;;;12.13;8.27;;;;;;;28.76;62.11;96292.34;4992274;28;20050;-60
2022/08/22 08:01:47;;;;;;;15.45;9.40;;;;;;;28.54;62.32;96308.50;4984583;28;20070;-62
2022/08/22 08:04:19;;;;;;;13.15;9.50;;;;;;;28.17;63.15;96269.34;4984762;28;20046;-62
2022/08/22 08:06:49;;;;;;;14.88;8.93;;;;;;;28.71;61.44;96283.75;4998422;28;20057;-62
2022/08/22 08:09:19;;;;;;;12.18;9.00;;;;;;;28.99;61.12;96296.13;4997794;28;20054;-60
2022/08/22 08:11:50;;;;;;;16.55;9.57;;;;;;;28.90;61.79;96227.88;4988027;28;20061;-64
2022/08/22 08:14:19;;;;;;;9.57;8.52;;;;;;;29.51;59.68;96300.28;4986521;28;20055;-61
2022/08/22 08:17:17;;;;;;;14.38;8.90;;;;;;;29.54;56.22;96256.41;4988516;28;20421;-61
2022/08/22 08:19:46;;;;;;;11.27;8.90;;;;;;;29.68;57.96;96235.47;4987879;28;20058;-62
2022/08/22 08:22:23;;;;;;;14.90;8.68;;;;;;;27.28;55.79;95840.25;4990426;28;20655;-66
2022/08/22 08:24:54;;;;;;;10.85;8.18;;;;;;;30.09;55.29;96292.88;4987350;28;20475;-65
2022/08/22 08:30:18;;;;;;;14.05;8.77;;;;;;;28.58;58.34;96289.13;4988607;28;20530;-62
2022/08/22 08:32:53;;;;;;;12.05;8.60;;;;;;;29.24;58.47;96280.97;5007316;28;20148;-65
2022/08/22 08:35:46;;;;;;;14.93;9.18;;;;;;;29.47;56.19;96246.28;4990502;28;20046;-63
2022/08/22 08:39:13;;;;;;;12.60;8.82;;;;;;;29.56;56.89;96211.00;4994043;28;20050;-68
2022/08/22 08:42:05;;;;;;;10.70;9.07;;;;;;;30.05;55.44;96278.84;5003393;28;20046;-61
2022/08/22 08:44:50;;;;;;;12.95;8.77;;;;;;;30.30;55.40;96275.03;4994016;28;20061;-62
2022/08/22 08:47:30;;;;;;;10.35;7.88;;;;;;;29.99;54.95;96240.19;4999848;28;20060;-69
2022/08/22 08:50:09;;;;;;;11.02;8.43;;;;;;;30.31;54.55;96265.13;5007053;28;20049;-67
2022/08/22 08:52:52;;;;;;;11.65;9.00;;;;;;;29.82;54.36;96267.91;4996327;28;20109;-63
2022/08/22 08:55:37;;;;;;;10.85;8.85;;;;;;;28.83;56.10;96268.28;4990037;28;20057;-64
2022/08/22 08:58:32;;;;;;;12.60;9.07;;;;;;;28.38;57.84;96249.28;4996646;28;20465;-65
2022/08/22 09:01:05;;;;;;;13.55;8.85;;;;;;;29.04;57.94;96266.81;4987729;28;20468;-62
2022/08/22 09:04:18;;;;;;;17.30;9.68;;;;;;;29.17;55.83;96195.84;4984656;28;20060;-69
2022/08/22 09:06:57;;;;;;;12.57;10.52;;;;;;;29.23;55.58;96265.13;4985572;28;20054;-66
2022/08/22 09:09:36;;;;;;;14.82;11.43;;;;;;;29.86;56.15;96260.66;4994920;28;20112;-63
2022/08/22 09:12:15;;;;;;;15.30;8.85;;;;;;;30.05;53.35;96258.84;4989523;28;20144;-65
2022/08/22 09:15:01;;;;;;;11.10;8.00;;;;;;;30.03;54.39;96261.47;4989181;28;20049;-66
2022/08/22 09:18:02;;;;;;;13.57;9.05;;;;;;;30.41;52.16;96252.16;4993934;28;20338;-66
2022/08/22 09:20:45;;;;;;;10.60;8.13;;;;;;;30.61;52.72;96257.56;4988934;28;20497;-66
2022/08/22 09:23:42;;;;;;;12.18;8.52;;;;;;;30.70;51.80;96265.88;4985482;28;20069;-61
2022/08/22 09:26:15;;;;;;;10.45;9.40;;;;;;;30.19;52.80;96263.53;4996452;28;20068;-63
2022/08/22 09:29:06;;;;;;;;;;;;;;;30.07;52.61;96261.19;5005405;28;20046;-62
2022/08/22 09:32:02;;;;;;;13.52;8.60;;;;;;;29.63;53.83;96255.38;5001828;28;20204;-66
2022/08/22 09:34:32;;;;;;;10.35;9.25;;;;;;;29.02;54.26;96183.84;5010437;28;20453;-61
2022/08/22 09:37:15;;;;;;;12.52;9.10;;;;;;;28.99;55.23;96191.34;5005942;28;20061;-65
2022/08/22 09:40:12;;;;;;;9.73;8.43;;;;;;;29.62;54.01;96242.41;4986503;28;20051;-61
2022/08/22 09:42:51;;;;;;;9.98;8.98;;;;;;;29.66;54.22;96238.03;4986144;28;20058;-67
2022/08/22 09:45:23;;;;;;;14.70;10.30;;;;;;;29.72;55.06;96238.81;4999271;28;20089;-63
2022/08/22 09:48:05;;;;;;;13.18;9.43;;;;;;;28.71;54.96;96175.41;5005641;28;20524;-61
2022/08/22 09:50:57;;;;;;;9.95;8.88;;;;;;;29.53;54.52;96234.88;5006291;28;20054;-68
2022/08/22 09:54:16;;;;;;;14.48;9.07;;;;;;;28.46;55.90;96177.09;4994985;28;20054;-73
2022/08/22 09:57:00;;;;;;;11.48;9.55;;;;;;;28.84;58.20;96230.72;4985137;28;20054;-72
2022/08/22 09:59:51;;;;;;;11.13;9.75;;;;;;;29.77;55.21;96226.63;4985448;28;20046;-62
2022/08/22 10:02:55;;;;;;;10.45;8.77;;;;;;;30.54;52.34;96218.06;5003593;28;20064;-68
2022/08/22 10:05:27;;;;;;;9.85;8.02;;;;;;;30.68;51.56;96214.13;5002387;28;20524;-68
2022/08/22 10:08:12;;;;;;;9.48;8.48;;;;;;;30.88;50.04;96211.00;4998766;28;20059;-73
2022/08/22 10:11:17;;;;;;;10.95;8.45;;;;;;;30.97;50.31;96206.28;4984869;28;20058;-63
2022/08/22 10:13:57;;;;;;;13.77;9.02;;;;;;;30.73;49.77;96210.47;4985534;28;20050;-69
2022/08/22 10:16:51;;;;;;;13.05;9.27;;;;;;;29.94;52.35;96207.44;4985993;28;20097;-63
2022/08/22 10:19:41;;;;;;;10.70;9.18;;;;;;;29.66;55.11;96206.63;4986033;28;20144;-63
2022/08/22 10:22:08;;;;;;;11.88;9.10;;;;;;;29.33;53.08;96203.69;4986048;28;20137;-65
2022/08/22 10:24:54;;;;;;;13.13;11.00;;;;;;;29.56;53.51;96205.28;4991777;28;20057;-63
2022/08/22 10:27:49;;;;;;;11.30;9.02;;;;;;;30.37;51.58;96214.47;4988971;28;20058;-64
2022/08/22 10:30:20;;;;;;;12.95;8.65;;;;;;;30.84;50.34;96210.47;4986057;28;20058;-63
2022/08/22 10:32:55;;;;;;;10.13;8.80;;;;;;;31.10;49.03;96177.84;4994349;28;20056;-65
2022/08/22 10:35:29;;;;;;;16.02;9.45;;;;;;;31.14;48.73;96155.47;4998825;28;20084;-64
2022/08/22 10:38:10;;;;;;;12.90;9.38;;;;;;;31.46;48.25;96150.91;4997187;28;20057;-67
2022/08/22 10:40:47;;;;;;;10.32;9.20;;;;;;;31.33;48.09;96102.06;5005069;28;20078;-64
2022/08/22 10:43:22;;;;;;;11.68;8.95;;;;;;;32.26;46.71;96183.63;5004614;28;20444;-66
2022/08/22 10:46:11;;;;;;;13.63;9.38;;;;;;;30.89;47.96;96174.56;5004810;28;20073;-65
2022/08/22 10:48:53;;;;;;;14.80;8.18;;;;;;;30.47;48.29;96169.22;4999500;28;20054;-62
2022/08/22 10:51:44;;;;;;;15.98;10.60;;;;;;;30.59;48.54;96142.94;4984168;28;20057;-67
2022/08/22 10:54:21;;;;;;;11.35;10.13;;;;;;;29.88;50.13;96146.69;4985516;28;20094;-68
2022/08/22 10:57:04;;;;;;;11.13;8.55;;;;;;;29.80;50.39;96144.88;4985210;28;20069;-68
2022/08/22 10:59:44;;;;;;;12.95;8.80;;;;;;;30.42;49.12;96179.38;4985925;28;20100;-67
2022/08/22 11:02:22;;;;;;;9.32;8.32;;;;;;;30.42;50.19;96179.38;4985191;28;20085;-67
2022/08/22 11:05:03;;;;;;;14.50;10.27;;;;;;;30.28;50.67;96180.44;4983843;28;20054;-62
2022/08/22 11:08:01;;;;;;;13.13;8.98;;;;;;;30.13;50.60;96179.91;4985115;28;20528;-65
2022/08/22 11:10:39;;;;;;;12.40;9.13;;;;;;;30.04;51.40;96177.31;4984873;28;20490;-66
2022/08/22 11:13:27;;;;;;;12.73;9.90;;;;;;;29.81;52.52;96147.22;4985243;28;20108;-62
2022/08/22 11:16:12;;;;;;;10.73;9.45;;;;;;;29.72;52.44;96178.88;4983921;28;20492;-62
2022/08/22 11:19:00;;;;;;;10.25;8.40;;;;;;;29.32;54.91;96191.47;4985318;28;20256;-63
2022/08/22 11:21:47;;;;;;;11.63;9.43;;;;;;;29.13;56.23;96192.47;4984003;28;20061;-69
2022/08/22 11:24:53;;;;;;;15.35;9.07;;;;;;;29.13;55.78;96183.91;4985638;28;20061;-64
2022/08/22 11:27:28;;;;;;;10.07;9.00;;;;;;;28.90;56.43;96188.72;4986259;28;20065;-64
2022/08/22 11:30:31;;;;;;;12.13;9.02;;;;;;;28.58;57.13;96195.81;4997011;28;20398;-66
2022/08/22 11:33:40;;;;;;;13.25;10.57;;;;;;;28.48;58.60;96165.19;4984389;28;20058;-62
2022/08/22 11:36:28;;;;;;;17.70;10.98;;;;;;;27.96;67.60;96196.66;4995461;28;20045;-62
2022/08/22 11:39:08;;;;;;;;;;;;;;;27.43;70.91;96193.59;5004423;28;20087;-64
2022/08/22 11:41:52;;;;;;;21.98;12.68;;;;;;;27.11;73.13;96186.22;4998778;28;19933;-64
2022/08/22 11:44:27;;;;;;;19.40;13.32;;;;;;;27.05;82.57;96179.69;4987201;28;20050;-61
2022/08/22 11:46:56;;;;;;;17.60;13.57;;;;;;;26.80;85.59;96163.38;5001334;28;20049;-63
2022/08/22 11:49:35;;;;;;;12.93;9.82;;;;;;;26.84;79.38;96186.72;5007654;28;20050;-59
2022/08/22 11:52:14;;;;;;;17.58;11.77;;;;;;;26.69;82.18;96135.63;5007730;28;20068;-66
2022/08/22 11:55:09;;;;;;;15.85;11.32;;;;;;;27.23;84.10;96199.31;5001947;28;20046;-66
2022/08/22 11:57:42;;;;;;;;;;;;;;;27.16;83.01;96185.50;4988866;28;20073;-62
2022/08/22 12:00:49;;;;;;;14.70;11.15;;;;;;;27.21;82.58;96170.56;4988283;28;19925;-62
2022/08/22 12:03:26;;;;;;;14.73;11.57;;;;;;;27.01;84.33;96161.31;4995781;28;20057;-61
2022/08/22 12:05:59;;;;;;;15.18;11.30;;;;;;;27.19;84.54;96178.81;5003855;28;20049;-64
2022/08/22 12:08:28;;;;;;;13.70;11.93;;;;;;;27.02;86.43;96192.06;4987666;28;20354;-63
2022/08/22 12:10:58;;;;;;;20.27;13.50;;;;;;;26.97;86.11;96201.31;4988120;28;20819;-65
2022/08/22 12:13:52;;;;;;;14.65;11.20;;;;;;;26.59;84.21;96164.63;4988376;28;20129;-63
2022/08/22 12:16:38;;;;;;;15.52;12.73;;;;;;;26.61;84.90;96196.19;4988400;28;20061;-65
2022/08/22 12:19:30;;;;;;;16.23;12.18;;;;;;;26.32;86.58;96213.34;4988772;28;20062;-63
2022/08/22 12:22:29;;;;;;;15.02;12.93;;;;;;;25.64;91.87;96220.47;4988016;28;20584;-63
2022/08/22 12:25:09;;;;;;;21.73;14.25;;;;;;;25.24;98.53;96215.34;4988133;28;20065;-64
2022/08/22 12:27:51;;;;;;;20.15;13.90;;;;;;;24.88;100.00;96216.44;4988109;28;20057;-64
2022/08/22 12:30:45;;;;;;;32.72;18.67;;;;;;;24.58;100.00;96234.56;4996395;28;20196;-64